sensor_id;sensor_type;location;lat;lon;timestamp;pressure;altitude;pressure_sealevel;temperature;humidity
13015;BME280;6573;57.696;11.950;2023-05-19T00:01:04;102909.28;;;12.98;100.00
13015;BME280;6573;57.696;11.950;2023-05-19T00:03:33;102918.78;;;12.88;100.00
13015;BME280;6573;57.696;11.950;2023-05-19T00:06:04;102922.22;;;12.84;100.00
13015;BME280;6573;57.696;11.950;2023-05-19T00:08:36;102923.25;;;12.91;100.00
13015;BME280;6573;57.696;11.950;2023-05-19T00:11:05;102925.97;;;12.95;100.00
13015;BME280;6573;57.696;11.950;2023-05-19T00:13:34;102915.41;;;12.95;100.00
13015;BME280;6573;57.696;11.950;2023-05-19T00:16:03;102923.16;;;12.86;100.00
13015;BME280;6573;57.696;11.950;2023-05-19T00:18:31;102920.31;;;12.77;100.00
13015;BME280;6573;57.696;11.950;2023-05-19T00:21:00;102917.69;;;12.79;100.00
13015;BME280;6573;57.696;11.950;2023-05-19T00:23:29;102924.69;;;12.77;100.00
13015;BME280;6573;57.696;11.950;2023-05-19T00:25:59;102926.53;;;12.81;100.00
13015;BME280;6573;57.696;11.950;2023-05-19T00:28:27;102920.34;;;12.80;100.00
13015;BME280;6573;57.696;11.950;2023-05-19T00:30:56;102923.72;;;12.73;100.00
13015;BME280;6573;57.696;11.950;2023-05-19T00:33:26;102927.28;;;12.75;100.00
13015;BME280;6573;57.696;11.950;2023-05-19T00:35:55;102925.63;;;12.80;100.00
13015;BME280;6573;57.696;11.950;2023-05-19T00:38:23;102931.81;;;12.81;100.00
13015;BME280;6573;57.696;11.950;2023-05-19T00:40:51;102929.00;;;12.73;100.00
13015;BME280;6573;57.696;11.950;2023-05-19T00:43:21;102921.81;;;12.66;100.00
13015;BME280;6573;57.696;11.950;2023-05-19T00:45:50;102935.03;;;12.68;100.00
13015;BME280;6573;57.696;11.950;2023-05-19T00:48:18;102930.81;;;12.74;100.00
13015;BME280;6573;57.696;11.950;2023-05-19T00:50:47;102932.56;;;12.75;100.00
13015;BME280;6573;57.696;11.950;2023-05-19T00:53:17;102920.09;;;12.68;100.00
13015;BME280;6573;57.696;11.950;2023-05-19T00:55:46;102927.94;;;12.65;100.00
13015;BME280;6573;57.696;11.950;2023-05-19T00:58:15;102932.09;;;12.54;100.00
13015;BME280;6573;57.696;11.950;2023-05-19T01:00:45;102940.13;;;12.59;100.00
13015;BME280;6573;57.696;11.950;2023-05-19T01:03:14;102935.66;;;12.56;100.00
13015;BME280;6573;57.696;11.950;2023-05-19T01:05:47;102930.31;;;12.53;100.00
13015;BME280;6573;57.696;11.950;2023-05-19T01:08:15;102935.47;;;12.47;100.00
13015;BME280;6573;57.696;11.950;2023-05-19T01:10:44;102935.50;;;12.49;100.00
13015;BME280;6573;57.696;11.950;2023-05-19T01:13:12;102934.66;;;12.50;100.00
13015;BME280;6573;57.696;11.950;2023-05-19T01:15:54;102944.09;;;12.40;100.00
13015;BME280;6573;57.696;11.950;2023-05-19T01:18:39;102927.81;;;12.22;100.00
13015;BME280;6573;57.696;11.950;2023-05-19T01:21:25;102892.31;;;12.08;100.00
13015;BME280;6573;57.696;11.950;2023-05-19T01:27:12;102942.47;;;12.45;100.00
13015;BME280;6573;57.696;11.950;2023-05-19T01:30:14;102945.94;;;12.44;100.00
13015;BME280;6573;57.696;11.950;2023-05-19T01:32:46;102945.03;;;12.42;100.00
13015;BME280;6573;57.696;11.950;2023-05-19T01:35:15;102933.38;;;12.34;100.00
13015;BME280;6573;57.696;11.950;2023-05-19T01:37:45;102942.53;;;12.12;100.00
13015;BME280;6573;57.696;11.950;2023-05-19T01:40:14;102948.47;;;12.04;100.00
13015;BME280;6573;57.696;11.950;2023-05-19T01:42:43;102943.06;;;11.98;100.00
13015;BME280;6573;57.696;11.950;2023-05-19T01:45:14;102949.09;;;11.94;100.00
13015;BME280;6573;57.696;11.950;2023-05-19T01:47:46;102937.38;;;11.83;100.00
13015;BME280;6573;57.696;11.950;2023-05-19T01:50:15;102941.16;;;11.94;100.00
13015;BME280;6573;57.696;11.950;2023-05-19T01:52:44;102951.03;;;12.01;100.00
13015;BME280;6573;57.696;11.950;2023-05-19T01:55:12;102950.88;;;11.95;100.00
13015;BME280;6573;57.696;11.950;2023-05-19T01:57:48;102948.25;;;11.95;100.00
13015;BME280;6573;57.696;11.950;2023-05-19T02:00:25;102948.13;;;11.90;100.00
13015;BME280;6573;57.696;11.950;2023-05-19T02:03:08;102953.34;;;11.89;100.00
13015;BME280;6573;57.696;11.950;2023-05-19T02:05:51;102953.28;;;11.86;100.00
13015;BME280;6573;57.696;11.950;2023-05-19T02:08:24;102951.50;;;11.85;100.00
13015;BME280;6573;57.696;11.950;2023-05-19T02:10:57;102958.63;;;11.89;100.00
13015;BME280;6573;57.696;11.950;2023-05-19T02:13:30;102953.34;;;11.89;100.00
13015;BME280;6573;57.696;11.950;2023-05-19T02:16:04;102953.34;;;11.89;100.00
13015;BME280;6573;57.696;11.950;2023-05-19T02:18:33;102951.72;;;11.94;100.00
13015;BME280;6573;57.696;11.950;2023-05-19T02:21:02;102948.34;;;11.98;100.00
13015;BME280;6573;57.696;11.950;2023-05-19T02:23:31;102952.72;;;11.99;100.00
13015;BME280;6573;57.696;11.950;2023-05-19T02:26:00;102951.81;;;11.97;100.00
13015;BME280;6573;57.696;11.950;2023-05-19T02:28:28;102952.41;;;11.85;100.00
13015;BME280;6573;57.696;11.950;2023-05-19T02:30:57;102945.91;;;11.73;100.00
13015;BME280;6573;57.696;11.950;2023-05-19T02:33:26;102946.72;;;11.70;100.00
13015;BME280;6573;57.696;11.950;2023-05-19T02:35:56;102949.38;;;11.72;100.00
13015;BME280;6573;57.696;11.950;2023-05-19T02:38:25;102947.75;;;11.77;100.00
13015;BME280;6573;57.696;11.950;2023-05-19T02:40:53;102946.91;;;11.78;100.00
13015;BME280;6573;57.696;11.950;2023-05-19T02:43:22;102947.63;;;11.71;100.00
13015;BME280;6573;57.696;11.950;2023-05-19T02:45:50;102944.50;;;11.87;100.00
13015;BME280;6573;57.696;11.950;2023-05-19T02:48:18;102947.56;;;12.03;100.00
13015;BME280;6573;57.696;11.950;2023-05-19T02:50:48;102943.50;;;12.16;100.00
13015;BME280;6573;57.696;11.950;2023-05-19T02:53:16;102952.56;;;12.27;100.00
13015;BME280;6573;57.696;11.950;2023-05-19T02:55:47;102957.13;;;12.32;100.00
13015;BME280;6573;57.696;11.950;2023-05-19T02:58:15;102952.19;;;12.12;100.00
13015;BME280;6573;57.696;11.950;2023-05-19T03:00:44;102942.97;;;11.95;100.00
13015;BME280;6573;57.696;11.950;2023-05-19T03:03:13;102952.50;;;11.90;100.00
13015;BME280;6573;57.696;11.950;2023-05-19T03:05:42;102951.41;;;11.82;100.00
13015;BME280;6573;57.696;11.950;2023-05-19T03:08:12;102941.69;;;11.79;100.00
13015;BME280;6573;57.696;11.950;2023-05-19T03:10:41;102956.88;;;11.88;100.00
13015;BME280;6573;57.696;11.950;2023-05-19T03:13:09;102951.09;;;12.02;100.00
13015;BME280;6573;57.696;11.950;2023-05-19T03:15:38;102945.00;;;12.06;100.00
13015;BME280;6573;57.696;11.950;2023-05-19T03:18:10;102949.78;;;11.87;100.00
13015;BME280;6573;57.696;11.950;2023-05-19T03:20:41;102951.72;;;11.94;100.00
13015;BME280;6573;57.696;11.950;2023-05-19T03:23:12;102955.53;;;12.05;100.00
13015;BME280;6573;57.696;11.950;2023-05-19T03:25:40;102943.28;;;12.07;100.00
13015;BME280;6573;57.696;11.950;2023-05-19T03:28:08;102955.63;;;12.08;100.00
13015;BME280;6573;57.696;11.950;2023-05-19T03:30:36;102950.50;;;11.81;100.00
13015;BME280;6573;57.696;11.950;2023-05-19T03:33:05;102951.72;;;11.94;100.00
13015;BME280;6573;57.696;11.950;2023-05-19T03:35:33;102929.06;;;12.02;100.00
13015;BME280;6573;57.696;11.950;2023-05-19T03:38:02;102956.31;;;12.35;100.00
13015;BME280;6573;57.696;11.950;2023-05-19T03:40:31;102953.69;;;12.37;100.00
13015;BME280;6573;57.696;11.950;2023-05-19T03:43:00;102951.16;;;12.41;100.00
13015;BME280;6573;57.696;11.950;2023-05-19T03:45:28;102963.44;;;12.39;100.00
13015;BME280;6573;57.696;11.950;2023-05-19T03:47:57;102961.59;;;12.35;100.00
13015;BME280;6573;57.696;11.950;2023-05-19T03:50:26;102965.16;;;12.37;100.00
13015;BME280;6573;57.696;11.950;2023-05-19T03:52:54;102964.09;;;12.30;100.00
13015;BME280;6573;57.696;11.950;2023-05-19T03:55:23;102965.97;;;12.34;100.00
13015;BME280;6573;57.696;11.950;2023-05-19T03:57:53;102963.22;;;12.30;100.00
13015;BME280;6573;57.696;11.950;2023-05-19T04:00:22;102970.34;;;12.34;100.00
13015;BME280;6573;57.696;11.950;2023-05-19T04:02:50;102964.28;;;12.38;100.00
13015;BME280;6573;57.696;11.950;2023-05-19T04:05:19;102966.78;;;12.32;100.00
13015;BME280;6573;57.696;11.950;2023-05-19T04:07:48;102962.97;;;12.21;100.00
13015;BME280;6573;57.696;11.950;2023-05-19T04:10:18;102966.56;;;12.23;100.00
13015;BME280;6573;57.696;11.950;2023-05-19T04:12:47;102967.72;;;12.00;100.00
13015;BME280;6573;57.696;11.950;2023-05-19T04:15:16;102967.31;;;12.19;100.00
13015;BME280;6573;57.696;11.950;2023-05-19T04:17:45;102969.00;;;12.15;100.00
13015;BME280;6573;57.696;11.950;2023-05-19T04:20:13;102969.44;;;11.98;100.00
13015;BME280;6573;57.696;11.950;2023-05-19T04:22:41;102971.59;;;12.14;100.00
13015;BME280;6573;57.696;11.950;2023-05-19T04:25:10;102972.81;;;12.28;100.00
13015;BME280;6573;57.696;11.950;2023-05-19T04:27:38;102968.41;;;12.27;100.00
13015;BME280;6573;57.696;11.950;2023-05-19T04:30:08;102975.63;;;12.34;100.00
13015;BME280;6573;57.696;11.950;2023-05-19T04:32:37;102963.34;;;12.36;100.00
13015;BME280;6573;57.696;11.950;2023-05-19T04:35:08;102974.78;;;12.35;100.00
13015;BME280;6573;57.696;11.950;2023-05-19T04:37:37;102976.63;;;12.39;100.00
13015;BME280;6573;57.696;11.950;2023-05-19T04:40:07;102978.34;;;12.37;100.00
13015;BME280;6573;57.696;11.950;2023-05-19T04:42:37;102977.41;;;12.35;100.00
13015;BME280;6573;57.696;11.950;2023-05-19T04:45:07;102974.06;;;12.42;100.00
13015;BME280;6573;57.696;11.950;2023-05-19T04:47:39;102977.47;;;12.38;100.00
13015;BME280;6573;57.696;11.950;2023-05-19T04:50:10;102978.91;;;12.60;100.00
13015;BME280;6573;57.696;11.950;2023-05-19T04:52:38;102979.84;;;12.63;100.00
13015;BME280;6573;57.696;11.950;2023-05-19T04:55:07;102984.41;;;12.70;100.00
13015;BME280;6573;57.696;11.950;2023-05-19T04:57:38;102986.91;;;12.64;100.00
13015;BME280;6573;57.696;11.950;2023-05-19T05:00:07;102960.31;;;12.55;100.00
13015;BME280;6573;57.696;11.950;2023-05-19T05:02:40;102984.53;;;12.75;100.00
13015;BME280;6573;57.696;11.950;2023-05-19T05:05:09;102974.91;;;12.78;100.00
13015;BME280;6573;57.696;11.950;2023-05-19T05:07:37;102978.63;;;12.86;100.00
13015;BME280;6573;57.696;11.950;2023-05-19T05:10:09;102949.56;;;12.86;100.00
13015;BME280;6573;57.696;11.950;2023-05-19T05:12:38;102973.75;;;13.05;100.00
13015;BME280;6573;57.696;11.950;2023-05-19T05:15:07;102970.56;;;13.19;100.00
13015;BME280;6573;57.696;11.950;2023-05-19T05:17:36;102972.78;;;13.02;100.00
13015;BME280;6573;57.696;11.950;2023-05-19T05:20:07;102971.56;;;13.24;100.00
13015;BME280;6573;57.696;11.950;2023-05-19T05:22:38;102974.59;;;13.44;100.00
13015;BME280;6573;57.696;11.950;2023-05-19T05:25:08;102969.78;;;13.68;100.00
13015;BME280;6573;57.696;11.950;2023-05-19T05:27:36;102975.28;;;13.80;100.00
13015;BME280;6573;57.696;11.950;2023-05-19T05:30:06;102978.75;;;13.76;100.00
13015;BME280;6573;57.696;11.950;2023-05-19T05:32:34;102977.38;;;13.96;100.00
13015;BME280;6573;57.696;11.950;2023-05-19T05:35:04;102977.44;;;14.01;100.00
13015;BME280;6573;57.696;11.950;2023-05-19T05:37:34;102979.25;;;14.03;100.00
13015;BME280;6573;57.696;11.950;2023-05-19T05:40:03;102977.72;;;14.17;100.00
13015;BME280;6573;57.696;11.950;2023-05-19T05:42:32;102984.94;;;14.27;100.00
13015;BME280;6573;57.696;11.950;2023-05-19T05:45:01;102982.41;;;14.32;100.00
13015;BME280;6573;57.696;11.950;2023-05-19T05:47:30;102984.22;;;14.35;100.00
13015;BME280;6573;57.696;11.950;2023-05-19T05:50:02;102988.75;;;14.42;100.00
13015;BME280;6573;57.696;11.950;2023-05-19T05:52:31;102988.78;;;14.45;100.00
13015;BME280;6573;57.696;11.950;2023-05-19T05:55:01;102978.31;;;14.51;100.00
13015;BME280;6573;57.696;11.950;2023-05-19T05:57:30;102985.38;;;14.52;100.00
13015;BME280;6573;57.696;11.950;2023-05-19T06:00:01;102991.66;;;14.58;100.00
13015;BME280;6573;57.696;11.950;2023-05-19T06:02:31;102983.00;;;14.70;100.00
13015;BME280;6573;57.696;11.950;2023-05-19T06:05:00;102987.53;;;14.77;100.00
13015;BME280;6573;57.696;11.950;2023-05-19T06:07:28;102987.63;;;14.86;100.00
13015;BME280;6573;57.696;11.950;2023-05-19T06:09:57;102984.09;;;14.84;100.00
13015;BME280;6573;57.696;11.950;2023-05-19T06:12:28;102987.56;;;14.80;100.00
13015;BME280;6573;57.696;11.950;2023-05-19T06:15:01;102987.63;;;14.83;100.00
13015;BME280;6573;57.696;11.950;2023-05-19T06:17:30;102985.94;;;14.88;100.00
13015;BME280;6573;57.696;11.950;2023-05-19T06:20:03;102984.34;;;15.02;100.00
13015;BME280;6573;57.696;11.950;2023-05-19T06:22:32;102988.81;;;15.05;100.00
13015;BME280;6573;57.696;11.950;2023-05-19T06:25:00;102997.63;;;15.04;100.00
13015;BME280;6573;57.696;11.950;2023-05-19T06:27:33;102988.00;;;15.10;100.00
13015;BME280;6573;57.696;11.950;2023-05-19T06:30:02;102991.81;;;15.30;100.00
13015;BME280;6573;57.696;11.950;2023-05-19T06:32:31;102985.69;;;15.39;100.00
13015;BME280;6573;57.696;11.950;2023-05-19T06:34:59;102994.91;;;14.99;100.00
13015;BME280;6573;57.696;11.950;2023-05-19T06:37:28;102987.09;;;15.08;100.00
13015;BME280;6573;57.696;11.950;2023-05-19T06:39:57;102970.31;;;15.09;100.00
13015;BME280;6573;57.696;11.950;2023-05-19T06:42:25;102989.97;;;15.26;100.00
13015;BME280;6573;57.696;11.950;2023-05-19T06:44:55;102983.19;;;15.46;100.00
13015;BME280;6573;57.696;11.950;2023-05-19T06:47:23;102994.09;;;15.74;100.00
13015;BME280;6573;57.696;11.950;2023-05-19T06:49:52;102988.88;;;15.80;100.00
13015;BME280;6573;57.696;11.950;2023-05-19T06:52:22;102999.41;;;15.74;100.00
13015;BME280;6573;57.696;11.950;2023-05-19T06:54:50;102999.00;;;15.40;100.00
13015;BME280;6573;57.696;11.950;2023-05-19T06:57:19;103001.19;;;15.75;100.00
13015;BME280;6573;57.696;11.950;2023-05-19T06:59:47;102999.19;;;15.52;100.00
13015;BME280;6573;57.696;11.950;2023-05-19T07:02:17;102980.34;;;15.33;100.00
13015;BME280;6573;57.696;11.950;2023-05-19T07:04:45;103006.53;;;15.78;100.00
13015;BME280;6573;57.696;11.950;2023-05-19T07:07:14;103017.28;;;15.93;100.00
13015;BME280;6573;57.696;11.950;2023-05-19T07:09:42;103010.19;;;15.89;100.00
13015;BME280;6573;57.696;11.950;2023-05-19T07:12:11;103011.97;;;15.90;100.00
13015;BME280;6573;57.696;11.950;2023-05-19T07:14:39;103014.56;;;15.85;100.00
13015;BME280;6573;57.696;11.950;2023-05-19T07:17:07;103013.03;;;16.08;100.00
13015;BME280;6573;57.696;11.950;2023-05-19T07:19:37;102997.13;;;16.10;100.00
13015;BME280;6573;57.696;11.950;2023-05-19T07:22:06;103015.69;;;16.07;100.00
13015;BME280;6573;57.696;11.950;2023-05-19T07:24:34;103013.66;;;15.82;100.00
13015;BME280;6573;57.696;11.950;2023-05-19T07:27:04;103019.78;;;15.76;100.00
13015;BME280;6573;57.696;11.950;2023-05-19T07:29:32;102995.72;;;15.60;100.00
13015;BME280;6573;57.696;11.950;2023-05-19T07:32:01;103023.47;;;15.87;100.00
13015;BME280;6573;57.696;11.950;2023-05-19T07:34:29;103021.75;;;15.92;100.00
13015;BME280;6573;57.696;11.950;2023-05-19T07:36:59;102997.84;;;15.94;100.00
13015;BME280;6573;57.696;11.950;2023-05-19T07:39:32;103021.06;;;16.14;100.00
13015;BME280;6573;57.696;11.950;2023-05-19T07:42:01;103021.66;;;16.86;100.00
13015;BME280;6573;57.696;11.950;2023-05-19T07:44:30;103013.25;;;17.71;100.00
13015;BME280;6573;57.696;11.950;2023-05-19T07:46:58;103009.75;;;18.27;100.00
13015;BME280;6573;57.696;11.950;2023-05-19T07:49:27;103018.66;;;18.71;100.00
13015;BME280;6573;57.696;11.950;2023-05-19T07:51:56;103016.03;;;18.60;100.00
13015;BME280;6573;57.696;11.950;2023-05-19T07:54:26;103014.22;;;18.64;100.00
13015;BME280;6573;57.696;11.950;2023-05-19T07:56:54;103016.91;;;18.52;100.00
13015;BME280;6573;57.696;11.950;2023-05-19T07:59:22;103019.53;;;18.84;100.00
13015;BME280;6573;57.696;11.950;2023-05-19T08:01:51;103006.13;;;19.09;100.00
13015;BME280;6573;57.696;11.950;2023-05-19T08:04:19;103014.94;;;19.45;100.00
13015;BME280;6573;57.696;11.950;2023-05-19T08:06:47;103001.53;;;19.48;100.00
13015;BME280;6573;57.696;11.950;2023-05-19T08:09:17;102999.75;;;19.48;100.00
13015;BME280;6573;57.696;11.950;2023-05-19T08:11:47;103002.88;;;20.18;100.00
13015;BME280;6573;57.696;11.950;2023-05-19T08:14:16;102995.25;;;19.58;100.00
13015;BME280;6573;57.696;11.950;2023-05-19T08:16:45;102998.94;;;19.32;100.00
13015;BME280;6573;57.696;11.950;2023-05-19T08:19:14;103001.72;;;18.93;100.00
13015;BME280;6573;57.696;11.950;2023-05-19T08:21:43;103000.88;;;18.79;100.00
13015;BME280;6573;57.696;11.950;2023-05-19T08:24:12;103004.41;;;18.90;100.00
13015;BME280;6573;57.696;11.950;2023-05-19T08:26:40;103006.13;;;19.06;100.00
13015;BME280;6573;57.696;11.950;2023-05-19T08:29:10;102999.91;;;19.01;100.00
13015;BME280;6573;57.696;11.950;2023-05-19T08:31:39;103002.59;;;18.98;100.00
13015;BME280;6573;57.696;11.950;2023-05-19T08:34:07;103009.78;;;18.75;100.00
13015;BME280;6573;57.696;11.950;2023-05-19T08:36:36;103008.00;;;18.74;100.00
13015;BME280;6573;57.696;11.950;2023-05-19T08:39:06;103007.00;;;19.05;100.00
13015;BME280;6573;57.696;11.950;2023-05-19T08:41:34;103014.22;;;18.68;100.00
13015;BME280;6573;57.696;11.950;2023-05-19T08:44:03;103016.88;;;18.73;100.00
13015;BME280;6573;57.696;11.950;2023-05-19T08:46:34;103013.31;;;18.44;100.00
13015;BME280;6573;57.696;11.950;2023-05-19T08:49:08;103008.91;;;18.50;100.00
13015;BME280;6573;57.696;11.950;2023-05-19T08:51:41;103004.47;;;18.46;100.00
13015;BME280;6573;57.696;11.950;2023-05-19T08:54:15;103009.78;;;18.75;100.00
13015;BME280;6573;57.696;11.950;2023-05-19T08:56:44;103016.88;;;18.76;100.00
13015;BME280;6573;57.696;11.950;2023-05-19T08:59:12;103010.63;;;18.75;100.00
13015;BME280;6573;57.696;11.950;2023-05-19T09:01:43;103008.88;;;18.34;100.00
13015;BME280;6573;57.696;11.950;2023-05-19T09:04:12;103020.44;;;18.57;100.00
13015;BME280;6573;57.696;11.950;2023-05-19T09:06:41;103013.34;;;18.65;100.00
13015;BME280;6573;57.696;11.950;2023-05-19T09:09:12;103016.88;;;18.73;100.00
13015;BME280;6573;57.696;11.950;2023-05-19T09:11:44;103014.16;;;18.88;100.00
13015;BME280;6573;57.696;11.950;2023-05-19T09:14:13;103009.75;;;18.81;100.00
13015;BME280;6573;57.696;11.950;2023-05-19T09:16:44;103006.16;;;19.02;100.00
13015;BME280;6573;57.696;11.950;2023-05-19T09:19:17;103004.38;;;18.93;100.00
13015;BME280;6573;57.696;11.950;2023-05-19T09:21:57;103008.84;;;18.93;100.00
13015;BME280;6573;57.696;11.950;2023-05-19T09:24:27;103004.41;;;18.90;100.00
13015;BME280;6573;57.696;11.950;2023-05-19T09:26:55;103010.69;;;18.50;100.00
13015;BME280;6573;57.696;11.950;2023-05-19T09:29:26;103012.44;;;18.73;100.00
13015;BME280;6573;57.696;11.950;2023-05-19T09:31:56;103015.09;;;18.72;100.00
13015;BME280;6573;57.696;11.950;2023-05-19T09:34:27;103007.09;;;18.80;100.00
13015;BME280;6573;57.696;11.950;2023-05-19T09:36:56;103014.19;;;18.84;100.00
13015;BME280;6573;57.696;11.950;2023-05-19T09:39:25;103010.63;;;18.82;100.00
13015;BME280;6573;57.696;11.950;2023-05-19T09:41:54;103002.66;;;18.74;100.00
13015;BME280;6573;57.696;11.950;2023-05-19T09:44:25;102999.91;;;19.06;100.00
13015;BME280;6573;57.696;11.950;2023-05-19T09:46:57;102997.25;;;18.98;100.00
13015;BME280;6573;57.696;11.950;2023-05-19T09:49:28;102981.38;;;18.53;100.00
13015;BME280;6573;57.696;11.950;2023-05-19T09:51:58;102984.00;;;18.59;100.00
13015;BME280;6573;57.696;11.950;2023-05-19T09:54:26;103006.25;;;18.52;100.00
13015;BME280;6573;57.696;11.950;2023-05-19T09:56:56;103004.44;;;18.51;100.00
13015;BME280;6573;57.696;11.950;2023-05-19T09:59:26;103003.53;;;18.79;100.00
13015;BME280;6573;57.696;11.950;2023-05-19T10:02:04;102989.22;;;19.15;100.00
13015;BME280;6573;57.696;11.950;2023-05-19T10:04:33;102993.75;;;18.81;100.00
13015;BME280;6573;57.696;11.950;2023-05-19T10:07:03;102993.75;;;18.81;100.00
13015;BME280;6573;57.696;11.950;2023-05-19T10:09:33;102994.66;;;18.71;100.00
13015;BME280;6573;57.696;11.950;2023-05-19T10:12:06;102995.50;;;18.88;100.00
13015;BME280;6573;57.696;11.950;2023-05-19T10:14:36;102991.97;;;18.95;100.00
13015;BME280;6573;57.696;11.950;2023-05-19T10:17:06;102999.09;;;18.69;100.00
13015;BME280;6573;57.696;11.950;2023-05-19T10:19:37;102988.44;;;18.51;100.00
13015;BME280;6573;57.696;11.950;2023-05-19T10:22:07;102995.56;;;18.55;100.00
13015;BME280;6573;57.696;11.950;2023-05-19T10:24:35;102990.22;;;18.70;100.00
13015;BME280;6573;57.696;11.950;2023-05-19T10:27:06;102986.66;;;18.74;100.00
13015;BME280;6573;57.696;11.950;2023-05-19T10:29:41;102989.31;;;18.80;100.00
13015;BME280;6573;57.696;11.950;2023-05-19T10:32:18;102993.75;;;18.84;100.00
13015;BME280;6573;57.696;11.950;2023-05-19T10:37:54;102990.19;;;18.73;100.00
13015;BME280;6573;57.696;11.950;2023-05-19T10:40:27;102990.16;;;18.97;100.00
13015;BME280;6573;57.696;11.950;2023-05-19T10:43:20;102991.97;;;18.89;100.00
13015;BME280;6573;57.696;11.950;2023-05-19T10:45:53;102983.06;;;18.78;100.00
13015;BME280;6573;57.696;11.950;2023-05-19T10:48:23;102995.56;;;18.61;100.00
13015;BME280;6573;57.696;11.950;2023-05-19T10:50:53;102999.13;;;18.57;100.00
13015;BME280;6573;57.696;11.950;2023-05-19T10:53:29;102996.47;;;18.55;100.00
13015;BME280;6573;57.696;11.950;2023-05-19T10:56:00;102997.31;;;18.32;100.00
13015;BME280;6573;57.696;11.950;2023-05-19T10:58:47;102993.78;;;18.36;100.00
13015;BME280;6573;57.696;11.950;2023-05-19T11:01:17;102974.25;;;18.13;100.00
13015;BME280;6573;57.696;11.950;2023-05-19T11:03:48;102990.19;;;18.46;100.00
13015;BME280;6573;57.696;11.950;2023-05-19T11:06:25;102990.22;;;18.67;100.00
13015;BME280;6573;57.696;11.950;2023-05-19T11:08:55;102966.22;;;18.41;100.00
13015;BME280;6573;57.696;11.950;2023-05-19T11:11:24;102995.56;;;18.40;100.00
13015;BME280;6573;57.696;11.950;2023-05-19T11:13:53;102994.66;;;18.42;100.00
13015;BME280;6573;57.696;11.950;2023-05-19T11:16:30;102990.22;;;18.37;100.00
13015;BME280;6573;57.696;11.950;2023-05-19T11:19:00;102986.66;;;18.44;100.00
13015;BME280;6573;57.696;11.950;2023-05-19T11:21:40;102994.69;;;18.50;100.00
13015;BME280;6573;57.696;11.950;2023-05-19T11:24:09;102995.53;;;18.34;100.00
13015;BME280;6573;57.696;11.950;2023-05-19T11:26:41;102993.75;;;18.24;100.00
13015;BME280;6573;57.696;11.950;2023-05-19T11:29:11;102993.75;;;17.96;100.00
13015;BME280;6573;57.696;11.950;2023-05-19T11:31:42;102976.88;;;17.90;100.00
13015;BME280;6573;57.696;11.950;2023-05-19T11:34:13;102992.00;;;18.26;100.00
13015;BME280;6573;57.696;11.950;2023-05-19T11:36:42;102984.88;;;18.00;100.00
13015;BME280;6573;57.696;11.950;2023-05-19T11:39:11;102986.66;;;18.13;100.00
13015;BME280;6573;57.696;11.950;2023-05-19T11:41:42;102990.22;;;18.40;100.00
13015;BME280;6573;57.696;11.950;2023-05-19T11:44:11;102989.34;;;18.72;100.00
13015;BME280;6573;57.696;11.950;2023-05-19T11:46:40;102984.88;;;18.61;100.00
13015;BME280;6573;57.696;11.950;2023-05-19T11:49:08;102987.56;;;18.61;100.00
13015;BME280;6573;57.696;11.950;2023-05-19T11:51:38;102981.34;;;18.48;100.00
13015;BME280;6573;57.696;11.950;2023-05-19T11:54:10;102976.00;;;18.62;100.00
13015;BME280;6573;57.696;11.950;2023-05-19T11:56:39;102971.56;;;18.14;100.00
13015;BME280;6573;57.696;11.950;2023-05-19T11:59:08;102974.22;;;18.19;100.00
13015;BME280;6573;57.696;11.950;2023-05-19T12:01:37;102970.69;;;18.51;100.00
13015;BME280;6573;57.696;11.950;2023-05-19T12:04:07;102972.44;;;18.75;100.00
13015;BME280;6573;57.696;11.950;2023-05-19T12:06:37;102974.16;;;18.91;100.00
13015;BME280;6573;57.696;11.950;2023-05-19T12:09:06;102968.88;;;18.85;100.00
13015;BME280;6573;57.696;11.950;2023-05-19T12:11:36;102977.78;;;18.69;100.00
13015;BME280;6573;57.696;11.950;2023-05-19T12:14:06;102974.19;;;18.76;100.00
13015;BME280;6573;57.696;11.950;2023-05-19T12:16:34;102976.00;;;18.56;100.00
13015;BME280;6573;57.696;11.950;2023-05-19T12:19:04;102974.19;;;18.82;100.00
13015;BME280;6573;57.696;11.950;2023-05-19T12:21:33;102974.19;;;18.73;100.00
13015;BME280;6573;57.696;11.950;2023-05-19T12:24:04;102952.91;;;18.70;100.00
13015;BME280;6573;57.696;11.950;2023-05-19T12:26:34;102975.91;;;19.01;100.00
13015;BME280;6573;57.696;11.950;2023-05-19T12:29:04;102967.03;;;19.02;100.00
13015;BME280;6573;57.696;11.950;2023-05-19T12:31:33;102959.91;;;18.98;100.00
13015;BME280;6573;57.696;11.950;2023-05-19T12:34:01;102963.41;;;19.20;100.00
13015;BME280;6573;57.696;11.950;2023-05-19T12:36:31;102955.38;;;19.21;100.00
13015;BME280;6573;57.696;11.950;2023-05-19T12:38:59;102958.91;;;19.29;100.00
13015;BME280;6573;57.696;11.950;2023-05-19T12:41:30;102951.91;;;18.97;100.00
13015;BME280;6573;57.696;11.950;2023-05-19T12:44:01;102952.69;;;19.24;100.00
13015;BME280;6573;57.696;11.950;2023-05-19T12:46:31;102949.88;;;19.58;100.00
13015;BME280;6573;57.696;11.950;2023-05-19T12:49:00;102939.94;;;19.81;100.00
13015;BME280;6573;57.696;11.950;2023-05-19T12:51:30;102946.84;;;20.06;100.00
13015;BME280;6573;57.696;11.950;2023-05-19T12:54:01;102944.16;;;20.09;100.00
13015;BME280;6573;57.696;11.950;2023-05-19T12:56:31;102946.09;;;19.87;100.00
13015;BME280;6573;57.696;11.950;2023-05-19T12:58:59;102941.75;;;19.76;100.00
13015;BME280;6573;57.696;11.950;2023-05-19T13:01:28;102947.09;;;19.76;100.00